sensor_id;sensor_type;location;lat;lon;timestamp;P1;durP1;ratioP1;P2;durP2;ratioP2
4051;SDS011;2040;50.924;11.604;2023-12-07T00:01:08;9.87;;;6.53;;
4051;SDS011;2040;50.924;11.604;2023-12-07T00:03:33;14.37;;;7.00;;
4051;SDS011;2040;50.924;11.604;2023-12-07T00:05:59;11.27;;;7.20;;
4051;SDS011;2040;50.924;11.604;2023-12-07T00:08:24;11.60;;;6.03;;
4051;SDS011;2040;50.924;11.604;2023-12-07T00:10:50;9.80;;;6.33;;
4051;SDS011;2040;50.924;11.604;2023-12-07T00:13:15;10.53;;;6.00;;
4051;SDS011;2040;50.924;11.604;2023-12-07T00:15:42;11.90;;;6.20;;
4051;SDS011;2040;50.924;11.604;2023-12-07T00:18:07;11.03;;;6.50;;
4051;SDS011;2040;50.924;11.604;2023-12-07T00:20:33;10.13;;;5.67;;
4051;SDS011;2040;50.924;11.604;2023-12-07T00:22:59;11.60;;;6.73;;
4051;SDS011;2040;50.924;11.604;2023-12-07T00:25:25;13.50;;;7.10;;
4051;SDS011;2040;50.924;11.604;2023-12-07T00:27:50;9.30;;;6.07;;
4051;SDS011;2040;50.924;11.604;2023-12-07T00:30:16;10.73;;;6.03;;
4051;SDS011;2040;50.924;11.604;2023-12-07T00:32:42;9.03;;;6.03;;
4051;SDS011;2040;50.924;11.604;2023-12-07T00:35:11;10.43;;;6.40;;
4051;SDS011;2040;50.924;11.604;2023-12-07T00:37:37;9.40;;;6.93;;
4051;SDS011;2040;50.924;11.604;2023-12-07T00:40:03;10.67;;;7.67;;
4051;SDS011;2040;50.924;11.604;2023-12-07T00:42:29;11.90;;;7.10;;
4051;SDS011;2040;50.924;11.604;2023-12-07T00:44:55;10.93;;;6.40;;
4051;SDS011;2040;50.924;11.604;2023-12-07T00:47:21;11.63;;;6.73;;
4051;SDS011;2040;50.924;11.604;2023-12-07T00:49:47;17.33;;;7.20;;
4051;SDS011;2040;50.924;11.604;2023-12-07T00:52:13;11.73;;;6.40;;
4051;SDS011;2040;50.924;11.604;2023-12-07T00:54:39;11.13;;;6.27;;
4051;SDS011;2040;50.924;11.604;2023-12-07T00:57:05;11.67;;;6.63;;
4051;SDS011;2040;50.924;11.604;2023-12-07T00:59:31;13.10;;;7.60;;
4051;SDS011;2040;50.924;11.604;2023-12-07T01:02:05;13.73;;;7.70;;
4051;SDS011;2040;50.924;11.604;2023-12-07T01:04:31;12.20;;;7.67;;
4051;SDS011;2040;50.924;11.604;2023-12-07T01:06:57;8.90;;;5.70;;
4051;SDS011;2040;50.924;11.604;2023-12-07T01:09:23;14.30;;;8.13;;
4051;SDS011;2040;50.924;11.604;2023-12-07T01:11:49;14.60;;;8.43;;
4051;SDS011;2040;50.924;11.604;2023-12-07T01:14:16;12.07;;;6.63;;
4051;SDS011;2040;50.924;11.604;2023-12-07T01:16:42;15.30;;;7.80;;
4051;SDS011;2040;50.924;11.604;2023-12-07T01:19:09;17.00;;;7.13;;
4051;SDS011;2040;50.924;11.604;2023-12-07T01:21:34;11.67;;;7.77;;
4051;SDS011;2040;50.924;11.604;2023-12-07T01:24:00;12.40;;;7.47;;
4051;SDS011;2040;50.924;11.604;2023-12-07T01:26:25;12.37;;;8.40;;
4051;SDS011;2040;50.924;11.604;2023-12-07T01:28:51;11.13;;;6.93;;
4051;SDS011;2040;50.924;11.604;2023-12-07T01:31:17;10.80;;;7.13;;
4051;SDS011;2040;50.924;11.604;2023-12-07T01:33:43;9.90;;;6.50;;
4051;SDS011;2040;50.924;11.604;2023-12-07T01:36:08;12.77;;;7.27;;
4051;SDS011;2040;50.924;11.604;2023-12-07T01:38:35;13.73;;;6.87;;
4051;SDS011;2040;50.924;11.604;2023-12-07T01:41:00;11.90;;;6.77;;
4051;SDS011;2040;50.924;11.604;2023-12-07T01:43:26;10.80;;;7.40;;
4051;SDS011;2040;50.924;11.604;2023-12-07T01:45:51;12.13;;;7.17;;
4051;SDS011;2040;50.924;11.604;2023-12-07T01:48:19;11.77;;;6.80;;
4051;SDS011;2040;50.924;11.604;2023-12-07T01:50:45;14.80;;;7.40;;
4051;SDS011;2040;50.924;11.604;2023-12-07T01:53:11;12.23;;;7.33;;
4051;SDS011;2040;50.924;11.604;2023-12-07T01:55:38;14.20;;;7.47;;
4051;SDS011;2040;50.924;11.604;2023-12-07T01:58:05;14.63;;;7.60;;
4051;SDS011;2040;50.924;11.604;2023-12-07T02:00:32;9.50;;;6.60;;
4051;SDS011;2040;50.924;11.604;2023-12-07T02:02:58;13.57;;;7.93;;
4051;SDS011;2040;50.924;11.604;2023-12-07T02:05:25;15.20;;;7.50;;
4051;SDS011;2040;50.924;11.604;2023-12-07T02:07:51;14.10;;;7.50;;
4051;SDS011;2040;50.924;11.604;2023-12-07T02:10:17;8.70;;;6.10;;
4051;SDS011;2040;50.924;11.604;2023-12-07T02:12:44;8.57;;;5.60;;
4051;SDS011;2040;50.924;11.604;2023-12-07T02:15:10;11.00;;;6.53;;
4051;SDS011;2040;50.924;11.604;2023-12-07T02:20:53;8.60;;;4.93;;
4051;SDS011;2040;50.924;11.604;2023-12-07T02:23:26;11.73;;;5.77;;
4051;SDS011;2040;50.924;11.604;2023-12-07T02:25:54;12.13;;;6.10;;
4051;SDS011;2040;50.924;11.604;2023-12-07T02:28:24;9.30;;;5.00;;
4051;SDS011;2040;50.924;11.604;2023-12-07T02:30:50;7.40;;;4.97;;
4051;SDS011;2040;50.924;11.604;2023-12-07T02:33:15;9.90;;;5.43;;
4051;SDS011;2040;50.924;11.604;2023-12-07T02:35:41;9.43;;;4.77;;
4051;SDS011;2040;50.924;11.604;2023-12-07T02:38:07;8.97;;;6.33;;
4051;SDS011;2040;50.924;11.604;2023-12-07T02:40:33;9.00;;;5.50;;
4051;SDS011;2040;50.924;11.604;2023-12-07T02:43:00;9.53;;;6.33;;
4051;SDS011;2040;50.924;11.604;2023-12-07T02:45:26;10.40;;;5.97;;
4051;SDS011;2040;50.924;11.604;2023-12-07T02:47:52;7.30;;;4.93;;
4051;SDS011;2040;50.924;11.604;2023-12-07T02:50:21;10.23;;;5.50;;
4051;SDS011;2040;50.924;11.604;2023-12-07T02:52:46;10.17;;;6.03;;
4051;SDS011;2040;50.924;11.604;2023-12-07T02:55:12;8.90;;;5.73;;
4051;SDS011;2040;50.924;11.604;2023-12-07T02:57:37;9.77;;;4.90;;
4051;SDS011;2040;50.924;11.604;2023-12-07T03:00:03;12.93;;;6.50;;
4051;SDS011;2040;50.924;11.604;2023-12-07T03:02:36;11.30;;;5.20;;
4051;SDS011;2040;50.924;11.604;2023-12-07T03:05:05;8.30;;;4.90;;
4051;SDS011;2040;50.924;11.604;2023-12-07T03:07:32;12.23;;;5.57;;
4051;SDS011;2040;50.924;11.604;2023-12-07T03:10:03;11.37;;;4.97;;
4051;SDS011;2040;50.924;11.604;2023-12-07T03:12:29;7.77;;;4.93;;
4051;SDS011;2040;50.924;11.604;2023-12-07T03:14:55;7.47;;;4.90;;
4051;SDS011;2040;50.924;11.604;2023-12-07T03:17:21;9.37;;;5.97;;
4051;SDS011;2040;50.924;11.604;2023-12-07T03:19:46;6.23;;;4.77;;
4051;SDS011;2040;50.924;11.604;2023-12-07T03:22:12;11.77;;;6.27;;
4051;SDS011;2040;50.924;11.604;2023-12-07T03:24:38;10.00;;;5.07;;
4051;SDS011;2040;50.924;11.604;2023-12-07T03:27:05;8.37;;;5.13;;
4051;SDS011;2040;50.924;11.604;2023-12-07T03:29:31;10.03;;;4.80;;
4051;SDS011;2040;50.924;11.604;2023-12-07T03:31:57;8.10;;;5.00;;
4051;SDS011;2040;50.924;11.604;2023-12-07T03:34:23;11.10;;;6.03;;
4051;SDS011;2040;50.924;11.604;2023-12-07T03:36:49;15.03;;;6.70;;
4051;SDS011;2040;50.924;11.604;2023-12-07T03:39:15;9.27;;;5.53;;
4051;SDS011;2040;50.924;11.604;2023-12-07T03:41:43;11.63;;;6.10;;
4051;SDS011;2040;50.924;11.604;2023-12-07T03:44:09;8.10;;;5.37;;
4051;SDS011;2040;50.924;11.604;2023-12-07T03:46:35;12.43;;;5.40;;
4051;SDS011;2040;50.924;11.604;2023-12-07T03:49:00;8.07;;;4.93;;
4051;SDS011;2040;50.924;11.604;2023-12-07T03:51:26;8.03;;;5.57;;
4051;SDS011;2040;50.924;11.604;2023-12-07T03:53:52;10.93;;;5.80;;
4051;SDS011;2040;50.924;11.604;2023-12-07T03:56:25;9.93;;;5.50;;
4051;SDS011;2040;50.924;11.604;2023-12-07T03:58:52;12.93;;;5.10;;
4051;SDS011;2040;50.924;11.604;2023-12-07T04:01:22;6.00;;;4.73;;
4051;SDS011;2040;50.924;11.604;2023-12-07T04:03:51;9.83;;;5.83;;
4051;SDS011;2040;50.924;11.604;2023-12-07T04:06:17;8.80;;;4.83;;
4051;SDS011;2040;50.924;11.604;2023-12-07T04:08:43;8.87;;;5.13;;
4051;SDS011;2040;50.924;11.604;2023-12-07T04:11:09;7.80;;;4.53;;
4051;SDS011;2040;50.924;11.604;2023-12-07T04:13:35;9.10;;;5.63;;
4051;SDS011;2040;50.924;11.604;2023-12-07T04:16:00;8.60;;;5.07;;
4051;SDS011;2040;50.924;11.604;2023-12-07T04:18:26;10.30;;;5.17;;
4051;SDS011;2040;50.924;11.604;2023-12-07T04:20:51;9.80;;;4.70;;
4051;SDS011;2040;50.924;11.604;2023-12-07T04:23:17;7.80;;;4.70;;
4051;SDS011;2040;50.924;11.604;2023-12-07T04:25:42;13.67;;;5.20;;
4051;SDS011;2040;50.924;11.604;2023-12-07T04:28:08;9.73;;;5.30;;
4051;SDS011;2040;50.924;11.604;2023-12-07T04:30:34;7.80;;;5.13;;
4051;SDS011;2040;50.924;11.604;2023-12-07T04:32:59;7.53;;;4.43;;
4051;SDS011;2040;50.924;11.604;2023-12-07T04:35:25;7.87;;;4.93;;
4051;SDS011;2040;50.924;11.604;2023-12-07T04:37:50;12.27;;;4.73;;
4051;SDS011;2040;50.924;11.604;2023-12-07T04:40:16;7.20;;;5.13;;
4051;SDS011;2040;50.924;11.604;2023-12-07T04:42:41;8.00;;;4.67;;
4051;SDS011;2040;50.924;11.604;2023-12-07T04:45:07;6.20;;;4.20;;
4051;SDS011;2040;50.924;11.604;2023-12-07T04:47:33;10.97;;;5.20;;
4051;SDS011;2040;50.924;11.604;2023-12-07T04:49:59;7.57;;;4.97;;
4051;SDS011;2040;50.924;11.604;2023-12-07T04:52:24;8.60;;;4.57;;
4051;SDS011;2040;50.924;11.604;2023-12-07T04:54:50;6.97;;;5.00;;
4051;SDS011;2040;50.924;11.604;2023-12-07T04:57:16;8.17;;;5.30;;
4051;SDS011;2040;50.924;11.604;2023-12-07T04:59:41;7.70;;;4.60;;
4051;SDS011;2040;50.924;11.604;2023-12-07T05:02:11;9.53;;;4.50;;
4051;SDS011;2040;50.924;11.604;2023-12-07T05:04:40;5.80;;;4.50;;
4051;SDS011;2040;50.924;11.604;2023-12-07T05:07:06;6.50;;;3.80;;
4051;SDS011;2040;50.924;11.604;2023-12-07T05:09:31;8.30;;;4.87;;
4051;SDS011;2040;50.924;11.604;2023-12-07T05:11:57;6.17;;;3.50;;
4051;SDS011;2040;50.924;11.604;2023-12-07T05:14:23;7.40;;;4.90;;
4051;SDS011;2040;50.924;11.604;2023-12-07T05:16:49;10.93;;;4.40;;
4051;SDS011;2040;50.924;11.604;2023-12-07T05:19:18;6.30;;;4.17;;
4051;SDS011;2040;50.924;11.604;2023-12-07T05:21:45;6.40;;;4.33;;
4051;SDS011;2040;50.924;11.604;2023-12-07T05:24:11;7.70;;;5.57;;
4051;SDS011;2040;50.924;11.604;2023-12-07T05:26:37;9.77;;;4.23;;
4051;SDS011;2040;50.924;11.604;2023-12-07T05:29:03;7.00;;;4.50;;
4051;SDS011;2040;50.924;11.604;2023-12-07T05:31:28;6.40;;;4.13;;
4051;SDS011;2040;50.924;11.604;2023-12-07T05:33:55;9.33;;;4.50;;
4051;SDS011;2040;50.924;11.604;2023-12-07T05:36:20;9.73;;;5.10;;
4051;SDS011;2040;50.924;11.604;2023-12-07T05:38:46;5.87;;;4.30;;
4051;SDS011;2040;50.924;11.604;2023-12-07T05:41:11;8.37;;;4.50;;
4051;SDS011;2040;50.924;11.604;2023-12-07T05:43:40;8.20;;;5.50;;
4051;SDS011;2040;50.924;11.604;2023-12-07T05:46:06;8.57;;;5.33;;
4051;SDS011;2040;50.924;11.604;2023-12-07T05:48:32;15.00;;;6.20;;
4051;SDS011;2040;50.924;11.604;2023-12-07T05:50:58;11.10;;;5.53;;
4051;SDS011;2040;50.924;11.604;2023-12-07T05:53:24;6.83;;;5.07;;
4051;SDS011;2040;50.924;11.604;2023-12-07T05:55:50;10.13;;;5.40;;
4051;SDS011;2040;50.924;11.604;2023-12-07T05:58:22;7.60;;;5.00;;
4051;SDS011;2040;50.924;11.604;2023-12-07T06:00:50;11.00;;;6.07;;
4051;SDS011;2040;50.924;11.604;2023-12-07T06:03:18;6.27;;;4.17;;
4051;SDS011;2040;50.924;11.604;2023-12-07T06:05:44;11.67;;;5.90;;
4051;SDS011;2040;50.924;11.604;2023-12-07T06:08:11;8.30;;;4.90;;
4051;SDS011;2040;50.924;11.604;2023-12-07T06:10:37;13.10;;;6.10;;
4051;SDS011;2040;50.924;11.604;2023-12-07T06:13:03;11.37;;;5.97;;
4051;SDS011;2040;50.924;11.604;2023-12-07T06:15:29;15.83;;;4.50;;
4051;SDS011;2040;50.924;11.604;2023-12-07T06:17:55;11.50;;;5.93;;
4051;SDS011;2040;50.924;11.604;2023-12-07T06:20:22;12.63;;;6.20;;
4051;SDS011;2040;50.924;11.604;2023-12-07T06:22:48;7.80;;;5.77;;
4051;SDS011;2040;50.924;11.604;2023-12-07T06:25:13;12.50;;;6.80;;
4051;SDS011;2040;50.924;11.604;2023-12-07T06:27:40;9.40;;;5.67;;
4051;SDS011;2040;50.924;11.604;2023-12-07T06:30:05;9.87;;;5.07;;
4051;SDS011;2040;50.924;11.604;2023-12-07T06:32:32;8.03;;;5.40;;
4051;SDS011;2040;50.924;11.604;2023-12-07T06:34:58;9.53;;;6.40;;
4051;SDS011;2040;50.924;11.604;2023-12-07T06:37:23;9.50;;;5.33;;
4051;SDS011;2040;50.924;11.604;2023-12-07T06:39:49;10.00;;;5.30;;
4051;SDS011;2040;50.924;11.604;2023-12-07T06:42:15;9.67;;;5.33;;
4051;SDS011;2040;50.924;11.604;2023-12-07T06:44:42;15.33;;;6.33;;
4051;SDS011;2040;50.924;11.604;2023-12-07T06:47:09;10.23;;;5.83;;
4051;SDS011;2040;50.924;11.604;2023-12-07T06:49:34;12.23;;;6.10;;
4051;SDS011;2040;50.924;11.604;2023-12-07T06:52:01;11.57;;;6.27;;
4051;SDS011;2040;50.924;11.604;2023-12-07T06:54:26;11.30;;;6.20;;
4051;SDS011;2040;50.924;11.604;2023-12-07T06:56:52;8.20;;;5.80;;
4051;SDS011;2040;50.924;11.604;2023-12-07T06:59:18;13.17;;;6.43;;
4051;SDS011;2040;50.924;11.604;2023-12-07T07:01:45;12.17;;;7.07;;
4051;SDS011;2040;50.924;11.604;2023-12-07T07:04:11;9.50;;;5.70;;
4051;SDS011;2040;50.924;11.604;2023-12-07T07:06:36;12.97;;;6.30;;
4051;SDS011;2040;50.924;11.604;2023-12-07T07:09:03;11.17;;;6.57;;
4051;SDS011;2040;50.924;11.604;2023-12-07T07:11:30;11.80;;;6.90;;
4051;SDS011;2040;50.924;11.604;2023-12-07T07:13:55;11.40;;;6.27;;
4051;SDS011;2040;50.924;11.604;2023-12-07T07:16:21;11.13;;;6.87;;
4051;SDS011;2040;50.924;11.604;2023-12-07T07:18:46;19.20;;;7.63;;
4051;SDS011;2040;50.924;11.604;2023-12-07T07:21:12;11.53;;;6.30;;
4051;SDS011;2040;50.924;11.604;2023-12-07T07:23:38;10.83;;;6.50;;
4051;SDS011;2040;50.924;11.604;2023-12-07T07:26:03;9.63;;;5.70;;
4051;SDS011;2040;50.924;11.604;2023-12-07T07:28:29;14.00;;;6.87;;
4051;SDS011;2040;50.924;11.604;2023-12-07T07:30:55;11.13;;;6.17;;
4051;SDS011;2040;50.924;11.604;2023-12-07T07:33:20;11.37;;;6.97;;
4051;SDS011;2040;50.924;11.604;2023-12-07T07:35:46;13.07;;;7.07;;
4051;SDS011;2040;50.924;11.604;2023-12-07T07:38:12;10.77;;;7.40;;
4051;SDS011;2040;50.924;11.604;2023-12-07T07:40:37;13.00;;;6.30;;
4051;SDS011;2040;50.924;11.604;2023-12-07T07:43:03;21.70;;;8.33;;
4051;SDS011;2040;50.924;11.604;2023-12-07T07:45:28;10.60;;;6.50;;
4051;SDS011;2040;50.924;11.604;2023-12-07T07:47:54;12.50;;;8.13;;
4051;SDS011;2040;50.924;11.604;2023-12-07T07:50:20;13.97;;;7.40;;
4051;SDS011;2040;50.924;11.604;2023-12-07T07:52:48;13.30;;;7.73;;
4051;SDS011;2040;50.924;11.604;2023-12-07T07:55:13;13.10;;;6.90;;
4051;SDS011;2040;50.924;11.604;2023-12-07T07:57:39;15.20;;;7.77;;
4051;SDS011;2040;50.924;11.604;2023-12-07T08:00:06;13.37;;;7.20;;
4051;SDS011;2040;50.924;11.604;2023-12-07T08:02:33;10.93;;;6.90;;
4051;SDS011;2040;50.924;11.604;2023-12-07T08:04:59;12.07;;;7.30;;
4051;SDS011;2040;50.924;11.604;2023-12-07T08:07:25;12.37;;;7.10;;
4051;SDS011;2040;50.924;11.604;2023-12-07T08:09:51;13.03;;;6.83;;
4051;SDS011;2040;50.924;11.604;2023-12-07T08:12:16;9.77;;;6.60;;
4051;SDS011;2040;50.924;11.604;2023-12-07T08:14:42;12.17;;;7.53;;
4051;SDS011;2040;50.924;11.604;2023-12-07T08:17:08;13.83;;;6.60;;
4051;SDS011;2040;50.924;11.604;2023-12-07T08:19:34;13.40;;;7.67;;
4051;SDS011;2040;50.924;11.604;2023-12-07T08:22:00;12.00;;;5.93;;
4051;SDS011;2040;50.924;11.604;2023-12-07T08:24:29;12.60;;;6.10;;
4051;SDS011;2040;50.924;11.604;2023-12-07T08:26:54;12.30;;;7.37;;
4051;SDS011;2040;50.924;11.604;2023-12-07T08:29:20;14.20;;;7.73;;
4051;SDS011;2040;50.924;11.604;2023-12-07T08:31:46;9.57;;;6.30;;
4051;SDS011;2040;50.924;11.604;2023-12-07T08:34:12;8.40;;;5.90;;
4051;SDS011;2040;50.924;11.604;2023-12-07T08:36:38;10.10;;;6.30;;
4051;SDS011;2040;50.924;11.604;2023-12-07T08:39:03;13.40;;;6.97;;
4051;SDS011;2040;50.924;11.604;2023-12-07T08:41:29;10.97;;;6.40;;
4051;SDS011;2040;50.924;11.604;2023-12-07T08:43:54;11.43;;;6.20;;
4051;SDS011;2040;50.924;11.604;2023-12-07T08:46:20;11.80;;;6.90;;
4051;SDS011;2040;50.924;11.604;2023-12-07T08:48:45;14.07;;;5.90;;
4051;SDS011;2040;50.924;11.604;2023-12-07T08:51:11;9.93;;;6.53;;
4051;SDS011;2040;50.924;11.604;2023-12-07T08:53:37;7.70;;;5.57;;
4051;SDS011;2040;50.924;11.604;2023-12-07T08:56:03;10.80;;;6.10;;
4051;SDS011;2040;50.924;11.604;2023-12-07T08:58:29;8.37;;;5.43;;
4051;SDS011;2040;50.924;11.604;2023-12-07T09:00:55;12.30;;;6.10;;
4051;SDS011;2040;50.924;11.604;2023-12-07T09:03:20;11.33;;;6.00;;
4051;SDS011;2040;50.924;11.604;2023-12-07T09:05:50;8.90;;;6.17;;
4051;SDS011;2040;50.924;11.604;2023-12-07T09:08:16;11.07;;;5.73;;
4051;SDS011;2040;50.924;11.604;2023-12-07T09:10:42;11.83;;;5.87;;
4051;SDS011;2040;50.924;11.604;2023-12-07T09:13:07;5.87;;;4.30;;
4051;SDS011;2040;50.924;11.604;2023-12-07T09:15:33;10.13;;;6.27;;
4051;SDS011;2040;50.924;11.604;2023-12-07T09:17:59;12.57;;;6.30;;
4051;SDS011;2040;50.924;11.604;2023-12-07T09:20:25;12.17;;;5.70;;
4051;SDS011;2040;50.924;11.604;2023-12-07T09:22:50;10.77;;;6.20;;
4051;SDS011;2040;50.924;11.604;2023-12-07T09:25:16;11.10;;;6.10;;
4051;SDS011;2040;50.924;11.604;2023-12-07T09:27:42;11.50;;;6.47;;
4051;SDS011;2040;50.924;11.604;2023-12-07T09:30:08;11.83;;;6.50;;
4051;SDS011;2040;50.924;11.604;2023-12-07T09:32:41;9.43;;;6.63;;
4051;SDS011;2040;50.924;11.604;2023-12-07T09:35:08;9.37;;;5.90;;
4051;SDS011;2040;50.924;11.604;2023-12-07T09:37:40;13.37;;;6.13;;
4051;SDS011;2040;50.924;11.604;2023-12-07T09:40:05;11.30;;;6.90;;
4051;SDS011;2040;50.924;11.604;2023-12-07T09:42:32;13.37;;;6.57;;
4051;SDS011;2040;50.924;11.604;2023-12-07T09:44:58;10.67;;;6.50;;
4051;SDS011;2040;50.924;11.604;2023-12-07T09:47:27;11.20;;;6.57;;
4051;SDS011;2040;50.924;11.604;2023-12-07T09:49:54;11.47;;;6.30;;
4051;SDS011;2040;50.924;11.604;2023-12-07T09:52:21;9.90;;;5.70;;
4051;SDS011;2040;50.924;11.604;2023-12-07T09:54:47;9.43;;;5.83;;
4051;SDS011;2040;50.924;11.604;2023-12-07T09:57:15;9.17;;;5.70;;
4051;SDS011;2040;50.924;11.604;2023-12-07T09:59:41;9.97;;;6.00;;
4051;SDS011;2040;50.924;11.604;2023-12-07T10:02:06;7.63;;;5.70;;
4051;SDS011;2040;50.924;11.604;2023-12-07T10:04:35;9.37;;;5.60;;
4051;SDS011;2040;50.924;11.604;2023-12-07T10:07:01;12.70;;;5.47;;
4051;SDS011;2040;50.924;11.604;2023-12-07T10:09:27;10.33;;;5.80;;
4051;SDS011;2040;50.924;11.604;2023-12-07T10:12:02;7.90;;;5.53;;
4051;SDS011;2040;50.924;11.604;2023-12-07T10:14:29;8.63;;;5.40;;
4051;SDS011;2040;50.924;11.604;2023-12-07T10:16:59;7.80;;;5.70;;
4051;SDS011;2040;50.924;11.604;2023-12-07T10:19:25;8.77;;;6.00;;
4051;SDS011;2040;50.924;11.604;2023-12-07T10:21:52;7.63;;;4.70;;
4051;SDS011;2040;50.924;11.604;2023-12-07T10:24:22;9.77;;;5.73;;
4051;SDS011;2040;50.924;11.604;2023-12-07T10:26:50;13.27;;;5.30;;
4051;SDS011;2040;50.924;11.604;2023-12-07T10:29:19;9.13;;;5.23;;
4051;SDS011;2040;50.924;11.604;2023-12-07T10:31:45;7.50;;;5.10;;
4051;SDS011;2040;50.924;11.604;2023-12-07T10:34:18;10.07;;;5.70;;
4051;SDS011;2040;50.924;11.604;2023-12-07T10:36:46;11.47;;;6.20;;
4051;SDS011;2040;50.924;11.604;2023-12-07T10:39:12;10.10;;;5.73;;
4051;SDS011;2040;50.924;11.604;2023-12-07T10:41:38;8.70;;;5.73;;
4051;SDS011;2040;50.924;11.604;2023-12-07T10:44:08;13.63;;;5.90;;
4051;SDS011;2040;50.924;11.604;2023-12-07T10:46:36;12.20;;;6.30;;
4051;SDS011;2040;50.924;11.604;2023-12-07T10:49:05;10.10;;;5.93;;
4051;SDS011;2040;50.924;11.604;2023-12-07T10:51:41;7.60;;;5.10;;
4051;SDS011;2040;50.924;11.604;2023-12-07T10:54:10;10.40;;;5.53;;
4051;SDS011;2040;50.924;11.604;2023-12-07T10:56:45;11.20;;;5.43;;
4051;SDS011;2040;50.924;11.604;2023-12-07T10:59:11;10.10;;;6.30;;
4051;SDS011;2040;50.924;11.604;2023-12-07T11:01:41;7.70;;;5.73;;
4051;SDS011;2040;50.924;11.604;2023-12-07T11:04:10;10.30;;;5.27;;
4051;SDS011;2040;50.924;11.604;2023-12-07T11:06:37;10.00;;;5.30;;
4051;SDS011;2040;50.924;11.604;2023-12-07T11:09:05;8.20;;;4.77;;
4051;SDS011;2040;50.924;11.604;2023-12-07T11:11:45;9.13;;;5.17;;
4051;SDS011;2040;50.924;11.604;2023-12-07T11:14:16;12.80;;;5.47;;
4051;SDS011;2040;50.924;11.604;2023-12-07T11:16:43;10.43;;;5.27;;
4051;SDS011;2040;50.924;11.604;2023-12-07T11:21:54;8.60;;;6.13;;
4051;SDS011;2040;50.924;11.604;2023-12-07T11:24:23;10.03;;;6.40;;
4051;SDS011;2040;50.924;11.604;2023-12-07T11:26:52;8.63;;;5.73;;
4051;SDS011;2040;50.924;11.604;2023-12-07T11:29:21;9.10;;;5.40;;
4051;SDS011;2040;50.924;11.604;2023-12-07T11:31:49;12.80;;;5.77;;
4051;SDS011;2040;50.924;11.604;2023-12-07T11:34:35;10.27;;;5.43;;
4051;SDS011;2040;50.924;11.604;2023-12-07T11:37:04;14.03;;;5.93;;
4051;SDS011;2040;50.924;11.604;2023-12-07T11:39:35;9.83;;;4.90;;
4051;SDS011;2040;50.924;11.604;2023-12-07T11:42:06;8.40;;;5.20;;
4051;SDS011;2040;50.924;11.604;2023-12-07T11:44:38;12.93;;;5.00;;
4051;SDS011;2040;50.924;11.604;2023-12-07T11:47:05;10.27;;;5.73;;
4051;SDS011;2040;50.924;11.604;2023-12-07T11:49:31;12.43;;;5.70;;
4051;SDS011;2040;50.924;11.604;2023-12-07T11:52:00;10.23;;;5.27;;
4051;SDS011;2040;50.924;11.604;2023-12-07T11:54:26;6.63;;;4.73;;
4051;SDS011;2040;50.924;11.604;2023-12-07T11:56:53;10.73;;;5.47;;
4051;SDS011;2040;50.924;11.604;2023-12-07T11:59:22;7.50;;;5.00;;
4051;SDS011;2040;50.924;11.604;2023-12-07T12:01:50;6.37;;;4.50;;
4051;SDS011;2040;50.924;11.604;2023-12-07T12:04:16;13.33;;;4.90;;
4051;SDS011;2040;50.924;11.604;2023-12-07T12:06:45;9.10;;;5.47;;
4051;SDS011;2040;50.924;11.604;2023-12-07T12:09:15;10.73;;;5.90;;
4051;SDS011;2040;50.924;11.604;2023-12-07T12:11:46;8.00;;;4.90;;
4051;SDS011;2040;50.924;11.604;2023-12-07T12:14:14;8.37;;;5.30;;
4051;SDS011;2040;50.924;11.604;2023-12-07T12:16:41;6.60;;;4.60;;
4051;SDS011;2040;50.924;11.604;2023-12-07T12:19:15;12.23;;;4.60;;
4051;SDS011;2040;50.924;11.604;2023-12-07T12:21:41;9.20;;;4.53;;
4051;SDS011;2040;50.924;11.604;2023-12-07T12:24:08;6.67;;;4.80;;
4051;SDS011;2040;50.924;11.604;2023-12-07T12:26:35;10.30;;;4.33;;
4051;SDS011;2040;50.924;11.604;2023-12-07T12:29:04;6.67;;;4.23;;
4051;SDS011;2040;50.924;11.604;2023-12-07T12:31:32;8.23;;;4.00;;
4051;SDS011;2040;50.924;11.604;2023-12-07T12:33:57;6.50;;;4.53;;
4051;SDS011;2040;50.924;11.604;2023-12-07T12:36:26;7.87;;;4.00;;
4051;SDS011;2040;50.924;11.604;2023-12-07T12:38:53;6.87;;;4.53;;
4051;SDS011;2040;50.924;11.604;2023-12-07T12:41:22;6.93;;;4.57;;
4051;SDS011;2040;50.924;11.604;2023-12-07T12:43:48;5.27;;;3.50;;
4051;SDS011;2040;50.924;11.604;2023-12-07T12:46:15;6.97;;;4.70;;
4051;SDS011;2040;50.924;11.604;2023-12-07T12:48:56;6.50;;;4.47;;
4051;SDS011;2040;50.924;11.604;2023-12-07T12:51:27;6.97;;;4.77;;
4051;SDS011;2040;50.924;11.604;2023-12-07T12:53:55;10.90;;;5.00;;
4051;SDS011;2040;50.924;11.604;2023-12-07T12:56:21;9.47;;;4.80;;
4051;SDS011;2040;50.924;11.604;2023-12-07T12:58:51;10.20;;;4.67;;
4051;SDS011;2040;50.924;11.604;2023-12-07T13:01:17;9.70;;;5.03;;
4051;SDS011;2040;50.924;11.604;2023-12-07T13:03:45;5.70;;;3.93;;
4051;SDS011;2040;50.924;11.604;2023-12-07T13:06:12;5.67;;;3.93;;
4051;SDS011;2040;50.924;11.604;2023-12-07T13:08:40;8.53;;;4.80;;
4051;SDS011;2040;50.924;11.604;2023-12-07T13:11:06;7.20;;;4.83;;
4051;SDS011;2040;50.924;11.604;2023-12-07T13:13:32;9.90;;;5.40;;
4051;SDS011;2040;50.924;11.604;2023-12-07T13:15:57;6.07;;;4.43;;
4051;SDS011;2040;50.924;11.604;2023-12-07T13:18:23;16.07;;;5.20;;
4051;SDS011;2040;50.924;11.604;2023-12-07T13:20:49;8.33;;;5.17;;
4051;SDS011;2040;50.924;11.604;2023-12-07T13:23:14;10.23;;;4.70;;
4051;SDS011;2040;50.924;11.604;2023-12-07T13:25:43;7.87;;;4.90;;
4051;SDS011;2040;50.924;11.604;2023-12-07T13:28:11;7.97;;;5.10;;
4051;SDS011;2040;50.924;11.604;2023-12-07T13:30:36;8.10;;;5.10;;
4051;SDS011;2040;50.924;11.604;2023-12-07T13:33:02;5.87;;;4.60;;
4051;SDS011;2040;50.924;11.604;2023-12-07T13:35:29;6.50;;;4.30;;
4051;SDS011;2040;50.924;11.604;2023-12-07T13:37:55;11.77;;;5.07;;
4051;SDS011;2040;50.924;11.604;2023-12-07T13:40:21;9.30;;;4.50;;
4051;SDS011;2040;50.924;11.604;2023-12-07T13:42:47;10.23;;;5.03;;
4051;SDS011;2040;50.924;11.604;2023-12-07T13:45:12;8.57;;;5.37;;
4051;SDS011;2040;50.924;11.604;2023-12-07T13:47:41;11.27;;;6.00;;
4051;SDS011;2040;50.924;11.604;2023-12-07T13:50:07;8.87;;;4.93;;
4051;SDS011;2040;50.924;11.604;2023-12-07T13:52:32;6.93;;;4.27;;
4051;SDS011;2040;50.924;11.604;2023-12-07T13:55:00;8.83;;;5.10;;
4051;SDS011;2040;50.924;11.604;2023-12-07T13:57:27;9.47;;;5.43;;
4051;SDS011;2040;50.924;11.604;2023-12-07T13:59:53;8.27;;;5.20;;
4051;SDS011;2040;50.924;11.604;2023-12-07T14:02:19;9.77;;;5.43;;
4051;SDS011;2040;50.924;11.604;2023-12-07T14:04:48;10.83;;;5.70;;
4051;SDS011;2040;50.924;11.604;2023-12-07T14:07:15;8.53;;;5.93;;
4051;SDS011;2040;50.924;11.604;2023-12-07T14:09:43;8.13;;;5.00;;
4051;SDS011;2040;50.924;11.604;2023-12-07T14:12:10;8.20;;;6.07;;
4051;SDS011;2040;50.924;11.604;2023-12-07T14:14:38;9.73;;;6.30;;
4051;SDS011;2040;50.924;11.604;2023-12-07T14:17:04;6.90;;;5.40;;
4051;SDS011;2040;50.924;11.604;2023-12-07T14:19:31;8.97;;;5.90;;
4051;SDS011;2040;50.924;11.604;2023-12-07T14:21:59;8.10;;;5.37;;
4051;SDS011;2040;50.924;11.604;2023-12-07T14:24:25;9.37;;;5.60;;
4051;SDS011;2040;50.924;11.604;2023-12-07T14:26:51;10.60;;;5.43;;
4051;SDS011;2040;50.924;11.604;2023-12-07T14:29:18;9.33;;;5.53;;
4051;SDS011;2040;50.924;11.604;2023-12-07T14:31:46;9.57;;;5.60;;
4051;SDS011;2040;50.924;11.604;2023-12-07T14:34:13;9.00;;;4.70;;
4051;SDS011;2040;50.924;11.604;2023-12-07T14:36:39;11.73;;;5.20;;
4051;SDS011;2040;50.924;11.604;2023-12-07T14:39:07;10.97;;;6.53;;
4051;SDS011;2040;50.924;11.604;2023-12-07T14:41:32;9.20;;;5.07;;
4051;SDS011;2040;50.924;11.604;2023-12-07T14:43:58;7.13;;;5.00;;
4051;SDS011;2040;50.924;11.604;2023-12-07T14:46:24;12.33;;;4.87;;
4051;SDS011;2040;50.924;11.604;2023-12-07T14:48:50;10.00;;;5.30;;
4051;SDS011;2040;50.924;11.604;2023-12-07T14:51:19;7.70;;;4.50;;
4051;SDS011;2040;50.924;11.604;2023-12-07T14:53:47;8.47;;;4.90;;
4051;SDS011;2040;50.924;11.604;2023-12-07T14:56:13;6.83;;;4.90;;
4051;SDS011;2040;50.924;11.604;2023-12-07T14:58:39;6.70;;;4.50;;